createdAt,value
2019-02-07T00:02:33.290Z,9.77
2019-02-07T00:05:02.205Z,9.50
2019-02-07T00:07:30.987Z,10.00
2019-02-07T00:09:59.861Z,9.60
2019-02-07T00:12:28.730Z,8.93
2019-02-07T00:18:00.181Z,8.90
2019-02-07T00:20:29.458Z,8.43
2019-02-07T00:22:58.782Z,7.47
2019-02-07T00:25:28.102Z,7.73
2019-02-07T00:27:57.427Z,7.67
2019-02-07T00:30:26.738Z,7.70
2019-02-07T00:35:57.899Z,7.03
2019-02-07T00:41:29.346Z,7.60
2019-02-07T00:43:58.652Z,7.40
2019-02-07T00:49:30.468Z,5.60
2019-02-07T00:51:59.988Z,6.83
2019-02-07T00:54:29.298Z,6.20
2019-02-07T00:56:58.608Z,6.50
2019-02-07T01:02:29.686Z,6.90
2019-02-07T01:04:59.003Z,5.87
2019-02-07T01:07:28.313Z,6.43
2019-02-07T01:09:57.729Z,6.93
2019-02-07T01:12:26.235Z,6.43
2019-02-07T01:15:15.552Z,6.97
2019-02-07T01:20:26.162Z,7.33
2019-02-07T01:23:15.381Z,6.47
2019-02-07T01:28:46.228Z,6.10
2019-02-07T01:31:15.544Z,6.93
2019-02-07T01:33:44.852Z,5.90
2019-02-07T01:36:14.161Z,6.47
2019-02-07T01:38:43.485Z,6.53
2019-02-07T01:41:12.794Z,6.80
2019-02-07T01:46:43.772Z,6.87
2019-02-07T01:49:13.211Z,7.27
2019-02-07T01:52:02.542Z,6.67
2019-02-07T01:54:42.566Z,7.17
2019-02-07T01:57:11.983Z,7.07
2019-02-07T02:00:01.459Z,6.77
2019-02-07T02:02:29.991Z,7.40
2019-02-07T02:11:02.616Z,7.43
2019-02-07T02:13:31.526Z,6.90
2019-02-07T02:21:46.258Z,8.53
2019-02-07T02:30:22.516Z,7.90
2019-02-07T02:33:12.255Z,8.00
2019-02-07T02:35:41.625Z,7.43
2019-02-07T02:41:12.688Z,7.93
2019-02-07T02:46:44.028Z,8.40
2019-02-07T02:52:15.185Z,9.53
2019-02-07T02:57:25.588Z,8.43
2019-02-07T02:59:54.393Z,7.83
2019-02-07T03:02:43.177Z,8.10
2019-02-07T03:08:34.214Z,9.33
2019-02-07T03:14:05.301Z,8.40
2019-02-07T03:19:55.706Z,7.57
2019-02-07T03:22:44.877Z,8.33
2019-02-07T03:25:32.871Z,7.97
2019-02-07T03:28:20.842Z,7.93
2019-02-07T03:36:53.851Z,8.27
2019-02-07T03:39:38.638Z,8.90
2019-02-07T03:45:29.508Z,8.77
2019-02-07T03:48:20.983Z,9.10
2019-02-07T03:51:09.809Z,8.53
2019-02-07T03:53:57.786Z,8.57
2019-02-07T03:56:36.657Z,8.43
2019-02-07T04:05:29.648Z,9.07
2019-02-07T04:11:19.735Z,9.17
2019-02-07T04:14:07.721Z,8.57
2019-02-07T04:16:42.749Z,8.27
2019-02-07T04:19:31.520Z,8.73
2019-02-07T04:22:19.397Z,9.50
2019-02-07T04:25:07.388Z,10.00
2019-02-07T04:27:53.735Z,11.90
2019-02-07T04:33:44.259Z,12.17
2019-02-07T04:36:24.754Z,10.97
2019-02-07T04:39:12.619Z,11.63
2019-02-07T04:42:00.591Z,11.53
2019-02-07T04:44:48.583Z,10.83
2019-02-07T04:47:37.671Z,12.47
2019-02-07T04:53:28.650Z,13.00
2019-02-07T04:59:06.857Z,11.53
2019-02-07T05:02:16.092Z,12.20
2019-02-07T05:05:04.058Z,13.07
2019-02-07T05:07:52.836Z,13.33
2019-02-07T05:10:40.723Z,14.33
2019-02-07T05:13:28.602Z,15.33
2019-02-07T05:19:18.568Z,15.20
2019-02-07T05:21:58.836Z,15.63
2019-02-07T05:24:46.905Z,16.73
2019-02-07T05:27:35.154Z,17.53
2019-02-07T05:33:25.104Z,14.80
2019-02-07T05:36:13.091Z,14.67
2019-02-07T05:42:03.358Z,17.47
2019-02-07T05:44:51.451Z,18.50
2019-02-07T05:47:39.330Z,17.37
2019-02-07T05:50:27.645Z,16.13
2019-02-07T05:53:15.625Z,19.67
2019-02-07T05:56:03.575Z,20.73
2019-02-07T05:58:52.645Z,27.97
2019-02-07T06:04:30.364Z,24.00
2019-02-07T06:07:19.197Z,21.53
2019-02-07T06:10:08.067Z,23.60
2019-02-07T06:12:56.845Z,20.57
2019-02-07T06:18:47.404Z,16.03
2019-02-07T06:24:37.513Z,16.60
2019-02-07T06:27:25.562Z,17.03
2019-02-07T06:30:14.341Z,16.50
2019-02-07T06:33:02.420Z,14.97
2019-02-07T06:41:12.935Z,19.50
2019-02-07T06:44:01.742Z,20.27
2019-02-07T06:46:49.655Z,18.10
2019-02-07T06:52:41.745Z,20.87
2019-02-07T06:55:29.668Z,23.57
2019-02-07T06:58:17.538Z,25.33
2019-02-07T07:00:54.748Z,24.27
2019-02-07T07:03:42.806Z,20.50
2019-02-07T07:06:30.696Z,18.37
2019-02-07T07:09:18.689Z,20.20
2019-02-07T07:12:07.546Z,23.53
2019-02-07T07:14:55.529Z,22.87
2019-02-07T07:17:43.511Z,24.10
2019-02-07T07:20:31.622Z,27.43
2019-02-07T07:23:19.610Z,26.97
2019-02-07T07:26:00.565Z,25.90
2019-02-07T07:28:48.553Z,24.90
2019-02-07T07:31:36.544Z,26.90
2019-02-07T07:37:26.807Z,24.47
2019-02-07T07:40:14.791Z,26.83
2019-02-07T07:49:00.029Z,23.80
2019-02-07T07:51:47.918Z,23.23
2019-02-07T07:54:36.014Z,23.13
2019-02-07T07:57:16.858Z,23.53
2019-02-07T08:00:07.043Z,22.57
2019-02-07T08:02:55.036Z,21.57
2019-02-07T08:13:47.517Z,22.30
2019-02-07T08:16:35.679Z,19.13
2019-02-07T08:19:23.888Z,17.57
2019-02-07T08:27:57.028Z,15.93
2019-02-07T08:30:44.907Z,16.97
2019-02-07T08:36:35.028Z,17.50
2019-02-07T08:42:26.202Z,18.67
2019-02-07T08:45:14.596Z,16.73
2019-02-07T08:48:04.027Z,16.80
2019-02-07T08:50:52.965Z,18.03
2019-02-07T08:53:41.145Z,16.97
2019-02-07T08:56:29.054Z,15.83
2019-02-07T09:02:00.072Z,16.63
2019-02-07T09:07:50.485Z,18.50
2019-02-07T09:10:38.861Z,19.60
2019-02-07T09:13:26.750Z,18.00
2019-02-07T09:16:15.790Z,16.63
2019-02-07T09:18:53.870Z,15.47
2019-02-07T09:21:42.899Z,16.33
2019-02-07T09:27:33.677Z,16.13
2019-02-07T09:33:05.187Z,16.20
2019-02-07T09:44:13.522Z,17.97
2019-02-07T09:47:01.607Z,15.83
2019-02-07T09:49:49.505Z,15.57
2019-02-07T09:52:37.539Z,14.33
2019-02-07T09:55:18.777Z,15.87
2019-02-07T09:58:07.584Z,16.20
2019-02-07T10:00:48.611Z,16.20
2019-02-07T10:06:25.556Z,15.93
2019-02-07T10:09:13.581Z,16.57
2019-02-07T10:12:02.869Z,16.53
2019-02-07T10:17:34.615Z,15.93
2019-02-07T10:20:24.253Z,16.83
2019-02-07T10:23:12.430Z,17.03
2019-02-07T10:26:01.978Z,18.50
2019-02-07T10:28:49.952Z,17.53
2019-02-07T10:31:37.950Z,16.50
2019-02-07T10:34:26.027Z,18.10
2019-02-07T10:37:07.786Z,17.03
2019-02-07T10:39:56.556Z,17.50
2019-02-07T10:42:45.383Z,19.00
2019-02-07T10:48:44.221Z,17.33
2019-02-07T10:51:18.942Z,17.00
2019-02-07T10:54:07.822Z,17.50
2019-02-07T10:56:55.896Z,16.80
2019-02-07T10:59:43.781Z,16.80
2019-02-07T11:05:34.209Z,14.27
2019-02-07T11:11:06.216Z,20.73
2019-02-07T11:13:46.096Z,18.83
2019-02-07T11:19:36.062Z,18.10
2019-02-07T11:25:28.551Z,17.73
2019-02-07T11:28:10.543Z,15.87
2019-02-07T11:34:00.353Z,18.17
2019-02-07T11:36:54.071Z,15.63
2019-02-07T11:39:38.108Z,14.67
2019-02-07T11:42:26.245Z,21.30
2019-02-07T11:45:15.035Z,18.40
2019-02-07T11:48:03.016Z,14.63
2019-02-07T11:50:51.816Z,13.83
2019-02-07T11:53:39.723Z,14.83
2019-02-07T11:56:27.708Z,15.53
2019-02-07T11:59:16.488Z,16.27
2019-02-07T12:02:09.119Z,16.50
2019-02-07T12:05:05.796Z,17.47
2019-02-07T12:07:54.611Z,17.10
2019-02-07T12:10:42.484Z,17.03
2019-02-07T12:13:30.563Z,17.33
2019-02-07T12:16:20.086Z,14.77
2019-02-07T12:19:17.691Z,15.63
2019-02-07T12:22:16.647Z,15.67
2019-02-07T12:28:07.276Z,17.33
2019-02-07T12:33:39.647Z,18.57
2019-02-07T12:36:20.274Z,19.33
2019-02-07T12:38:55.476Z,17.37
2019-02-07T12:41:44.246Z,21.23
2019-02-07T12:44:32.139Z,22.67
2019-02-07T12:47:21.211Z,20.07
2019-02-07T12:53:11.102Z,18.00
2019-02-07T12:55:59.081Z,20.17
2019-02-07T12:58:48.073Z,32.40
2019-02-07T13:01:36.051Z,29.23
2019-02-07T13:04:25.613Z,28.83
2019-02-07T13:07:13.625Z,21.70
2019-02-07T13:10:01.616Z,17.80
2019-02-07T13:12:49.533Z,16.13
2019-02-07T13:15:38.311Z,21.47
2019-02-07T13:18:26.382Z,21.23
2019-02-07T13:21:14.459Z,24.37
2019-02-07T13:24:02.423Z,27.33
2019-02-07T13:29:53.060Z,24.27
2019-02-07T13:32:41.944Z,23.60
2019-02-07T13:35:22.467Z,23.20
2019-02-07T13:38:11.348Z,23.13
2019-02-07T13:40:59.330Z,26.20
2019-02-07T13:43:48.135Z,20.63
2019-02-07T13:46:36.215Z,17.57
2019-02-07T13:49:25.038Z,20.63
2019-02-07T13:52:13.826Z,22.43
2019-02-07T13:54:52.572Z,25.70
2019-02-07T14:00:43.074Z,22.13
2019-02-07T14:03:33.398Z,22.80
2019-02-07T14:06:22.092Z,21.20
2019-02-07T14:09:10.926Z,18.57
2019-02-07T14:11:59.713Z,19.37
2019-02-07T14:14:48.508Z,19.37
2019-02-07T14:17:36.730Z,21.97
2019-02-07T14:20:26.510Z,16.20
2019-02-07T14:23:14.496Z,18.07
2019-02-07T14:26:03.552Z,19.47
2019-02-07T14:28:52.469Z,25.10
2019-02-07T14:31:41.247Z,25.90
2019-02-07T14:34:27.741Z,26.50
2019-02-07T14:37:15.920Z,27.50
2019-02-07T14:40:04.758Z,29.43
2019-02-07T14:42:53.535Z,30.73
2019-02-07T14:45:42.347Z,27.63
2019-02-07T14:48:22.435Z,22.87
2019-02-07T14:50:51.907Z,19.00
2019-02-07T14:56:23.221Z,17.40
2019-02-07T14:58:52.146Z,18.43
2019-02-07T15:04:23.857Z,18.33
2019-02-07T15:06:52.984Z,19.23
2019-02-07T15:09:22.397Z,19.87
2019-02-07T15:11:50.910Z,23.13
2019-02-07T15:14:20.238Z,19.90
2019-02-07T15:16:49.555Z,19.53
2019-02-07T15:19:18.860Z,18.23
2019-02-07T15:22:08.093Z,19.10
2019-02-07T15:24:37.416Z,21.97
2019-02-07T15:27:06.723Z,18.83
2019-02-07T15:29:35.442Z,19.47
2019-02-07T15:32:04.763Z,19.60
2019-02-07T15:34:34.070Z,20.30
2019-02-07T15:37:03.492Z,20.70
2019-02-07T15:39:32.806Z,20.37
2019-02-07T15:42:01.347Z,21.97
2019-02-07T15:44:30.082Z,23.83
2019-02-07T15:46:58.779Z,22.47
2019-02-07T15:49:48.038Z,25.37
2019-02-07T15:52:17.462Z,25.67
2019-02-07T15:54:45.887Z,23.80
2019-02-07T15:57:14.394Z,25.50
2019-02-07T16:00:03.038Z,25.97
2019-02-07T16:02:36.492Z,26.50
2019-02-07T16:05:08.060Z,26.30
2019-02-07T16:07:37.769Z,28.73
2019-02-07T16:10:09.942Z,25.00
2019-02-07T16:12:38.855Z,24.43
2019-02-07T16:15:09.168Z,22.60
2019-02-07T16:17:38.002Z,24.63
2019-02-07T16:20:11.423Z,27.00
2019-02-07T16:22:41.066Z,24.97
2019-02-07T16:25:11.207Z,26.77
2019-02-07T16:27:40.107Z,29.87
2019-02-07T16:30:32.192Z,33.70
2019-02-07T16:33:01.294Z,37.80
2019-02-07T16:35:30.651Z,29.30
2019-02-07T16:37:59.574Z,28.83
2019-02-07T16:43:30.888Z,31.43
2019-02-07T16:46:00.205Z,32.17
2019-02-07T16:48:29.508Z,27.83
2019-02-07T16:51:00.496Z,28.63
2019-02-07T16:53:47.941Z,30.40
2019-02-07T16:56:17.261Z,28.43
2019-02-07T16:58:46.582Z,32.60
2019-02-07T17:03:58.867Z,32.80
2019-02-07T17:06:28.378Z,33.97
2019-02-07T17:08:57.720Z,32.23
2019-02-07T17:11:27.026Z,22.97
2019-02-07T17:13:55.747Z,23.30
2019-02-07T17:16:25.055Z,20.33
2019-02-07T17:18:53.567Z,21.33
2019-02-07T17:21:42.799Z,19.87
2019-02-07T17:24:12.333Z,18.87
2019-02-07T17:26:40.871Z,19.77
2019-02-07T17:29:10.186Z,23.07
2019-02-07T17:31:59.391Z,21.27
2019-02-07T17:34:28.711Z,18.67
2019-02-07T17:36:58.010Z,19.70
2019-02-07T17:39:27.504Z,20.00
2019-02-07T17:41:59.457Z,26.13
2019-02-07T17:44:46.147Z,22.03
2019-02-07T17:47:14.858Z,23.43
2019-02-07T17:49:43.382Z,22.43
2019-02-07T17:52:12.711Z,21.57
2019-02-07T17:55:01.953Z,21.13
2019-02-07T17:57:31.272Z,17.80
2019-02-07T18:00:00.689Z,19.57
2019-02-07T18:02:30.000Z,20.63
2019-02-07T18:04:59.323Z,22.17
2019-02-07T18:07:28.630Z,23.07
2019-02-07T18:09:57.953Z,25.93
2019-02-07T18:12:27.258Z,23.70
2019-02-07T18:14:56.579Z,26.93
2019-02-07T18:17:25.898Z,24.50
2019-02-07T18:19:54.347Z,27.20
2019-02-07T18:22:43.584Z,26.20
2019-02-07T18:25:13.118Z,25.60
2019-02-07T18:27:42.650Z,25.83
2019-02-07T18:30:14.735Z,24.90
2019-02-07T18:32:43.543Z,26.13
2019-02-07T18:35:13.124Z,26.93
2019-02-07T18:37:41.841Z,23.67
2019-02-07T18:40:14.555Z,25.17
2019-02-07T18:42:43.856Z,27.23
2019-02-07T18:48:15.649Z,21.60
2019-02-07T18:50:44.985Z,20.40
2019-02-07T18:53:14.332Z,22.80
2019-02-07T18:59:06.146Z,24.80
2019-02-07T19:01:35.460Z,24.77
2019-02-07T19:04:04.891Z,24.00
2019-02-07T19:06:34.200Z,22.67
2019-02-07T19:12:07.450Z,22.07
2019-02-07T19:14:36.849Z,20.07
2019-02-07T19:17:06.197Z,20.90
2019-02-07T19:19:35.539Z,16.67
2019-02-07T19:22:04.865Z,15.40
2019-02-07T19:24:54.175Z,15.50
2019-02-07T19:27:23.505Z,13.40
2019-02-07T19:29:52.810Z,13.90
2019-02-07T19:32:22.124Z,16.57
2019-02-07T19:34:51.337Z,14.60
2019-02-07T19:40:23.236Z,13.17
2019-02-07T19:42:51.989Z,14.07
2019-02-07T19:45:21.423Z,14.43
2019-02-07T19:47:50.152Z,14.60
2019-02-07T19:50:21.601Z,12.87
2019-02-07T19:52:50.523Z,15.70
2019-02-07T19:58:23.051Z,12.73
2019-02-07T20:00:52.496Z,13.07
2019-02-07T20:03:21.815Z,12.23
2019-02-07T20:06:03.500Z,11.67
2019-02-07T20:08:43.580Z,12.60
2019-02-07T20:11:12.299Z,11.27
2019-02-07T20:13:41.614Z,11.90
2019-02-07T20:16:11.023Z,12.27
2019-02-07T20:18:40.603Z,13.53
2019-02-07T20:21:09.936Z,14.77
2019-02-07T20:23:39.736Z,14.70
2019-02-07T20:26:28.457Z,12.57
2019-02-07T20:28:57.773Z,12.87
2019-02-07T20:31:46.974Z,13.67
2019-02-07T20:37:18.045Z,12.93
2019-02-07T20:39:47.360Z,12.43
2019-02-07T20:45:39.406Z,12.53
2019-02-07T20:51:11.300Z,12.90
2019-02-07T20:53:40.724Z,14.80
2019-02-07T20:56:10.037Z,14.97
2019-02-07T20:58:39.356Z,13.40
2019-02-07T21:01:08.668Z,14.17
2019-02-07T21:03:37.977Z,15.73
2019-02-07T21:09:09.949Z,27.23
2019-02-07T21:14:40.617Z,23.37
2019-02-07T21:17:09.327Z,25.27
2019-02-07T21:19:37.838Z,24.43
2019-02-07T21:25:20.871Z,19.77
2019-02-07T21:27:49.385Z,18.63
2019-02-07T21:30:20.590Z,16.53
2019-02-07T21:32:49.850Z,17.20
2019-02-07T21:38:20.323Z,15.07
2019-02-07T21:40:49.644Z,16.03
2019-02-07T21:43:18.164Z,14.77
2019-02-07T21:45:47.487Z,15.10
2019-02-07T21:48:16.802Z,14.43
2019-02-07T21:50:46.147Z,22.87
2019-02-07T21:53:15.615Z,25.53
2019-02-07T21:55:44.445Z,23.37
2019-02-07T21:58:33.662Z,19.27
2019-02-07T22:01:03.186Z,15.80
2019-02-07T22:03:31.792Z,13.70
2019-02-07T22:06:00.313Z,12.80
2019-02-07T22:08:28.849Z,12.60
2019-02-07T22:10:58.286Z,12.30
2019-02-07T22:13:27.603Z,13.17
2019-02-07T22:15:56.929Z,13.37
2019-02-07T22:18:25.458Z,12.03
2019-02-07T22:20:54.786Z,12.33
2019-02-07T22:23:24.095Z,13.63
2019-02-07T22:25:53.006Z,13.33
2019-02-07T22:28:22.338Z,12.27
2019-02-07T22:30:50.757Z,12.43
2019-02-07T22:33:20.096Z,13.17
2019-02-07T22:35:49.412Z,13.10
2019-02-07T22:38:18.748Z,13.27
2019-02-07T22:41:07.982Z,13.57
2019-02-07T22:43:36.615Z,15.83
2019-02-07T22:46:05.937Z,15.93
2019-02-07T22:48:35.359Z,15.70
2019-02-07T22:51:04.211Z,14.23
2019-02-07T22:56:35.405Z,14.33
2019-02-07T23:02:07.906Z,13.57
2019-02-07T23:04:36.386Z,14.43
2019-02-07T23:07:05.097Z,13.27
2019-02-07T23:09:34.022Z,13.90
2019-02-07T23:14:46.353Z,14.07
2019-02-07T23:17:14.753Z,15.10
2019-02-07T23:19:43.266Z,13.47
2019-02-07T23:22:32.499Z,13.87
2019-02-07T23:25:01.015Z,14.43
2019-02-07T23:27:30.344Z,13.80
2019-02-07T23:29:59.671Z,14.40
2019-02-07T23:32:28.987Z,17.97
2019-02-07T23:34:57.519Z,19.23
2019-02-07T23:37:26.835Z,18.73
2019-02-07T23:39:55.333Z,19.80
2019-02-07T23:42:24.749Z,18.93
2019-02-07T23:44:54.049Z,15.90
2019-02-07T23:47:23.466Z,14.90
2019-02-07T23:52:56.298Z,18.50
2019-02-07T23:55:25.713Z,19.57
2019-02-07T23:57:55.037Z,19.07
